createdAt,value
2022-08-14T00:01:54.560Z,3.10
2022-08-14T00:04:34.853Z,2.83
2022-08-14T00:07:10.925Z,2.35
2022-08-14T00:09:55.855Z,2.88
2022-08-14T00:12:33.643Z,2.63
2022-08-14T00:15:43.435Z,2.63
2022-08-14T00:18:14.506Z,2.60
2022-08-14T00:20:43.391Z,2.40
2022-08-14T00:23:16.774Z,2.58
2022-08-14T00:28:36.034Z,2.85
2022-08-14T00:31:08.144Z,2.50
2022-08-14T00:33:50.868Z,2.60
2022-08-14T00:36:39.042Z,2.22
2022-08-14T00:39:18.271Z,2.30
2022-08-14T00:41:47.392Z,2.53
2022-08-14T00:44:21.471Z,2.53
2022-08-14T00:47:00.327Z,2.38
2022-08-14T00:49:28.763Z,2.88
2022-08-14T00:52:00.462Z,2.30
2022-08-14T00:54:27.696Z,2.42
2022-08-14T00:56:56.043Z,2.85
2022-08-14T00:59:25.908Z,2.85
2022-08-14T01:01:59.824Z,2.65
2022-08-14T01:04:51.459Z,2.42
2022-08-14T01:07:21.369Z,2.50
2022-08-14T01:09:51.424Z,2.53
2022-08-14T01:12:27.106Z,2.60
2022-08-14T01:14:59.307Z,2.20
2022-08-14T01:17:49.520Z,2.22
2022-08-14T01:20:39.982Z,2.70
2022-08-14T01:23:10.455Z,2.22
2022-08-14T01:25:44.274Z,2.75
2022-08-14T01:28:34.398Z,2.92
2022-08-14T01:31:01.653Z,2.75
2022-08-14T01:33:30.300Z,2.63
2022-08-14T01:36:04.533Z,2.45
2022-08-14T01:38:37.077Z,2.60
2022-08-14T01:41:15.059Z,2.83
2022-08-14T01:43:44.727Z,2.80
2022-08-14T01:46:25.206Z,2.60
2022-08-14T01:49:01.467Z,3.15
2022-08-14T01:51:29.696Z,2.72
2022-08-14T01:54:00.828Z,2.83
2022-08-14T01:56:39.843Z,2.85
2022-08-14T01:59:18.176Z,2.70
2022-08-14T02:01:58.552Z,2.47
2022-08-14T02:04:54.593Z,2.95
2022-08-14T02:07:34.452Z,2.60
2022-08-14T02:10:15.995Z,2.70
2022-08-14T02:12:54.212Z,2.63
2022-08-14T02:15:25.788Z,2.75
2022-08-14T02:17:53.471Z,2.90
2022-08-14T02:20:23.843Z,2.58
2022-08-14T02:22:55.195Z,2.70
2022-08-14T02:25:23.307Z,2.78
2022-08-14T02:28:23.365Z,2.67
2022-08-14T02:30:44.661Z,2.80
2022-08-14T02:33:12.589Z,2.72
2022-08-14T02:35:43.328Z,2.83
2022-08-14T02:38:11.769Z,2.63
2022-08-14T02:40:48.800Z,2.53
2022-08-14T02:43:17.422Z,2.65
2022-08-14T02:45:49.861Z,2.65
2022-08-14T02:49:04.277Z,2.72
2022-08-14T02:51:07.274Z,2.60
2022-08-14T02:53:38.333Z,2.90
2022-08-14T02:56:30.497Z,3.20
2022-08-14T02:59:01.356Z,2.60
2022-08-14T03:01:31.289Z,2.95
2022-08-14T03:04:11.526Z,2.70
2022-08-14T03:06:57.481Z,2.78
2022-08-14T03:09:41.837Z,2.85
2022-08-14T03:12:17.909Z,2.88
2022-08-14T03:14:58.689Z,2.85
2022-08-14T03:17:26.949Z,2.72
2022-08-14T03:19:59.159Z,2.88
2022-08-14T03:22:30.002Z,2.55
2022-08-14T03:24:57.066Z,3.30
2022-08-14T03:27:26.606Z,2.47
2022-08-14T03:30:05.425Z,2.72
2022-08-14T03:32:33.493Z,2.85
2022-08-14T03:35:01.081Z,2.83
2022-08-14T03:39:09.956Z,2.63
2022-08-14T03:40:25.214Z,2.83
2022-08-14T03:42:52.266Z,2.90
2022-08-14T03:45:34.165Z,2.83
2022-08-14T03:48:04.739Z,3.33
2022-08-14T03:50:38.401Z,2.70
2022-08-14T03:53:05.726Z,2.83
2022-08-14T03:55:34.601Z,2.83
2022-08-14T03:58:01.585Z,2.97
2022-08-14T04:00:43.370Z,2.60
2022-08-14T04:03:17.941Z,4.03
2022-08-14T04:05:48.780Z,2.95
2022-08-14T04:08:22.678Z,2.60
2022-08-14T04:10:57.507Z,3.00
2022-08-14T04:13:27.870Z,2.63
2022-08-14T04:15:56.778Z,2.65
2022-08-14T04:20:58.588Z,2.30
2022-08-14T04:23:29.615Z,2.88
2022-08-14T04:26:02.053Z,2.60
2022-08-14T04:29:01.879Z,2.80
2022-08-14T04:31:18.011Z,2.70
2022-08-14T04:33:52.875Z,2.83
2022-08-14T04:36:20.271Z,2.63
2022-08-14T04:39:09.410Z,2.72
2022-08-14T04:41:57.927Z,3.55
2022-08-14T04:44:35.927Z,3.00
2022-08-14T04:47:22.051Z,2.60
2022-08-14T04:49:57.306Z,3.28
2022-08-14T04:52:25.434Z,2.90
2022-08-14T04:54:54.685Z,2.35
2022-08-14T04:57:22.887Z,2.70
2022-08-14T04:59:52.754Z,2.78
2022-08-14T05:02:21.530Z,3.08
2022-08-14T05:04:57.322Z,2.97
2022-08-14T05:07:46.311Z,3.00
2022-08-14T05:10:16.546Z,3.05
2022-08-14T05:13:11.687Z,2.72
2022-08-14T05:15:39.623Z,2.90
2022-08-14T05:18:17.290Z,2.45
2022-08-14T05:21:56.279Z,3.05
2022-08-14T05:23:51.927Z,2.75
2022-08-14T05:26:21.733Z,2.63
2022-08-14T05:28:49.113Z,2.70
2022-08-14T05:31:20.361Z,2.58
2022-08-14T05:33:56.525Z,2.85
2022-08-14T05:36:25.364Z,2.90
2022-08-14T05:38:54.186Z,2.40
2022-08-14T05:41:22.460Z,2.70
2022-08-14T05:43:51.184Z,2.80
2022-08-14T05:46:23.080Z,2.88
2022-08-14T05:48:57.295Z,2.70
2022-08-14T05:51:25.652Z,3.00
2022-08-14T05:54:01.584Z,2.75
2022-08-14T05:56:37.307Z,2.75
2022-08-14T05:59:05.509Z,2.95
2022-08-14T06:01:32.555Z,2.60
2022-08-14T06:04:00.580Z,2.35
2022-08-14T06:06:27.540Z,2.42
2022-08-14T06:08:54.562Z,2.90
2022-08-14T06:11:23.971Z,2.40
2022-08-14T06:13:58.692Z,2.42
2022-08-14T06:16:25.758Z,2.63
2022-08-14T06:18:53.307Z,2.60
2022-08-14T06:21:23.001Z,2.58
2022-08-14T06:23:50.601Z,2.63
2022-08-14T06:26:20.536Z,2.20
2022-08-14T06:28:51.714Z,2.55
2022-08-14T06:31:18.930Z,2.40
2022-08-14T06:35:04.754Z,2.03
2022-08-14T06:36:39.427Z,2.28
2022-08-14T06:39:09.866Z,2.25
2022-08-14T06:41:58.471Z,2.20
2022-08-14T06:44:30.714Z,2.30
2022-08-14T06:49:27.369Z,2.08
2022-08-14T06:51:57.472Z,1.90
2022-08-14T06:54:31.733Z,2.00
2022-08-14T06:56:59.278Z,2.00
2022-08-14T06:59:26.502Z,2.50
2022-08-14T07:02:13.492Z,2.33
2022-08-14T07:05:05.262Z,2.33
2022-08-14T07:07:40.073Z,2.35
2022-08-14T07:10:16.914Z,2.35
2022-08-14T07:13:01.052Z,2.28
2022-08-14T07:15:33.885Z,2.20
2022-08-14T07:18:01.996Z,2.38
2022-08-14T07:20:31.228Z,2.10
2022-08-14T07:23:08.486Z,2.65
2022-08-14T07:25:38.211Z,2.13
2022-08-14T07:28:23.583Z,1.98
2022-08-14T07:30:52.682Z,1.95
2022-08-14T07:33:28.929Z,2.40
2022-08-14T07:35:59.455Z,1.80
2022-08-14T07:38:36.274Z,2.20
2022-08-14T07:41:11.830Z,2.10
2022-08-14T07:43:44.162Z,1.90
2022-08-14T07:46:21.071Z,2.28
2022-08-14T07:48:55.533Z,1.92
2022-08-14T07:51:23.055Z,2.15
2022-08-14T07:53:56.906Z,2.03
2022-08-14T07:56:44.025Z,2.50
2022-08-14T07:59:12.837Z,2.30
2022-08-14T08:01:51.199Z,1.95
2022-08-14T08:04:24.184Z,2.25
2022-08-14T08:06:53.004Z,2.20
2022-08-14T08:09:31.972Z,2.25
2022-08-14T08:12:04.584Z,2.30
2022-08-14T08:14:55.608Z,2.00
2022-08-14T08:17:24.192Z,1.92
2022-08-14T08:19:51.868Z,2.00
2022-08-14T08:22:21.392Z,2.15
2022-08-14T08:24:50.263Z,2.33
2022-08-14T08:27:21.320Z,2.55
2022-08-14T08:29:50.738Z,2.50
2022-08-14T08:32:18.681Z,2.40
2022-08-14T08:34:48.478Z,2.03
2022-08-14T08:37:16.244Z,2.00
2022-08-14T08:40:03.466Z,2.28
2022-08-14T08:42:38.764Z,2.25
2022-08-14T08:45:14.787Z,1.73
2022-08-14T08:47:45.493Z,2.03
2022-08-14T08:53:09.082Z,2.25
2022-08-14T08:55:36.665Z,2.20
2022-08-14T08:58:16.690Z,2.30
2022-08-14T09:00:50.553Z,2.25
2022-08-14T09:03:27.913Z,2.60
2022-08-14T09:06:53.988Z,2.20
2022-08-14T09:08:52.652Z,2.20
2022-08-14T09:11:21.182Z,2.25
2022-08-14T09:13:54.555Z,2.00
2022-08-14T09:16:23.680Z,1.85
2022-08-14T09:18:53.269Z,1.90
2022-08-14T09:21:24.141Z,2.08
2022-08-14T09:24:26.954Z,1.80
2022-08-14T09:26:44.228Z,1.90
2022-08-14T09:29:19.834Z,1.73
2022-08-14T09:31:58.126Z,1.88
2022-08-14T09:34:59.054Z,1.70
2022-08-14T09:37:40.119Z,1.90
2022-08-14T09:40:20.798Z,1.60
2022-08-14T09:42:52.789Z,1.80
2022-08-14T09:45:40.287Z,1.77
2022-08-14T09:48:30.032Z,1.60
2022-08-14T09:54:18.125Z,1.67
2022-08-14T09:56:31.218Z,2.17
2022-08-14T09:59:12.875Z,2.25
2022-08-14T10:01:46.105Z,1.67
2022-08-14T10:04:34.460Z,1.65
2022-08-14T10:07:05.767Z,1.85
2022-08-14T10:09:33.222Z,1.80
2022-08-14T10:12:04.690Z,2.05
2022-08-14T10:14:36.662Z,1.80
2022-08-14T10:17:08.469Z,1.77
2022-08-14T10:19:46.957Z,1.73
2022-08-14T10:23:12.580Z,1.70
2022-08-14T10:25:17.573Z,1.80
2022-08-14T10:27:50.163Z,2.08
2022-08-14T10:30:25.718Z,2.20
2022-08-14T10:32:55.569Z,2.08
2022-08-14T10:35:31.684Z,2.05
2022-08-14T10:38:01.387Z,1.88
2022-08-14T10:40:37.908Z,1.90
2022-08-14T10:43:26.830Z,2.17
2022-08-14T10:46:04.196Z,1.85
2022-08-14T10:49:00.878Z,1.67
2022-08-14T10:51:34.320Z,1.65
2022-08-14T10:54:16.801Z,1.90
2022-08-14T10:57:15.279Z,1.83
2022-08-14T11:00:29.943Z,2.15
2022-08-14T11:03:26.509Z,2.00
2022-08-14T11:06:16.335Z,1.90
2022-08-14T11:08:43.400Z,2.20
2022-08-14T11:11:13.063Z,1.70
2022-08-14T11:13:53.681Z,1.85
2022-08-14T11:16:22.981Z,2.25
2022-08-14T11:21:30.242Z,2.05
2022-08-14T11:24:02.511Z,1.80
2022-08-14T11:26:51.311Z,1.80
2022-08-14T11:29:24.690Z,1.90
2022-08-14T11:31:57.204Z,1.95
2022-08-14T11:34:32.488Z,2.10
2022-08-14T11:37:23.594Z,2.05
2022-08-14T11:39:56.268Z,1.92
2022-08-14T11:43:06.335Z,2.08
2022-08-14T11:45:18.787Z,2.00
2022-08-14T11:48:13.198Z,1.77
2022-08-14T11:50:38.425Z,2.17
2022-08-14T11:53:08.775Z,2.00
2022-08-14T11:55:38.025Z,1.70
2022-08-14T11:58:10.328Z,2.00
2022-08-14T12:00:53.600Z,1.77
2022-08-14T12:06:28.078Z,2.00
2022-08-14T12:08:56.690Z,1.80
2022-08-14T12:11:44.115Z,2.03
2022-08-14T12:14:34.504Z,2.10
2022-08-14T12:17:09.397Z,1.90
2022-08-14T12:19:51.171Z,2.20
2022-08-14T12:22:32.693Z,2.22
2022-08-14T12:25:04.158Z,2.05
2022-08-14T12:27:37.838Z,2.10
2022-08-14T12:30:10.247Z,2.08
2022-08-14T12:32:40.667Z,2.20
2022-08-14T12:35:08.568Z,2.10
2022-08-14T12:37:38.731Z,2.08
2022-08-14T12:40:19.490Z,2.00
2022-08-14T12:42:53.666Z,2.03
2022-08-14T12:45:32.811Z,1.80
2022-08-14T12:48:01.961Z,2.40
2022-08-14T12:50:53.181Z,2.10
2022-08-14T12:53:21.102Z,1.90
2022-08-14T12:56:18.561Z,2.13
2022-08-14T12:58:55.636Z,2.20
2022-08-14T13:01:27.436Z,2.13
2022-08-14T13:04:15.243Z,1.75
2022-08-14T13:06:50.721Z,2.40
2022-08-14T13:09:19.667Z,2.13
2022-08-14T13:11:58.378Z,1.95
2022-08-14T13:14:30.018Z,1.98
2022-08-14T13:16:58.645Z,1.67
2022-08-14T13:19:28.465Z,2.00
2022-08-14T13:22:05.385Z,1.70
2022-08-14T13:24:39.889Z,1.80
2022-08-14T13:27:10.078Z,1.67
2022-08-14T13:29:43.751Z,1.95
2022-08-14T13:32:14.551Z,1.92
2022-08-14T13:34:45.579Z,1.60
2022-08-14T13:37:15.509Z,1.80
2022-08-14T13:39:56.360Z,1.70
2022-08-14T13:42:35.360Z,1.65
2022-08-14T13:45:06.518Z,1.80
2022-08-14T13:47:33.573Z,1.48
2022-08-14T13:50:04.788Z,1.52
2022-08-14T13:52:59.554Z,1.95
2022-08-14T13:55:29.738Z,2.22
2022-08-14T13:58:05.180Z,1.63
2022-08-14T14:00:35.349Z,2.13
2022-08-14T14:03:06.168Z,1.65
2022-08-14T14:05:52.812Z,2.08
2022-08-14T14:08:45.775Z,1.70
2022-08-14T14:11:10.578Z,1.75
2022-08-14T14:13:42.017Z,1.70
2022-08-14T14:16:15.430Z,1.73
2022-08-14T14:18:56.181Z,1.88
2022-08-14T14:21:28.483Z,1.90
2022-08-14T14:23:56.989Z,1.90
2022-08-14T14:26:24.947Z,2.10
2022-08-14T14:28:56.779Z,1.48
2022-08-14T14:31:30.353Z,1.92
2022-08-14T14:34:07.441Z,1.60
2022-08-14T14:36:44.109Z,1.92
2022-08-14T14:39:21.078Z,1.67
2022-08-14T14:41:56.386Z,1.88
2022-08-14T14:44:27.887Z,1.90
2022-08-14T14:46:56.422Z,2.03
2022-08-14T14:49:31.949Z,1.90
2022-08-14T14:52:20.761Z,1.65
2022-08-14T14:54:53.556Z,2.45
2022-08-14T14:57:21.164Z,2.03
2022-08-14T14:59:50.174Z,2.17
2022-08-14T15:02:36.699Z,1.70
2022-08-14T15:05:05.380Z,1.83
2022-08-14T15:07:33.084Z,1.70
2022-08-14T15:10:00.555Z,1.95
2022-08-14T15:12:55.036Z,1.73
2022-08-14T15:15:16.303Z,2.10
2022-08-14T15:17:44.150Z,2.00
2022-08-14T15:20:17.321Z,1.88
2022-08-14T15:22:57.563Z,1.80
2022-08-14T15:25:24.639Z,2.15
2022-08-14T15:27:54.772Z,1.95
2022-08-14T15:30:24.105Z,1.50
2022-08-14T15:32:51.792Z,1.42
2022-08-14T15:35:22.727Z,1.65
2022-08-14T15:37:55.548Z,1.50
2022-08-14T15:40:24.234Z,1.40
2022-08-14T15:42:51.391Z,1.92
2022-08-14T15:45:19.038Z,1.70
2022-08-14T15:47:45.997Z,1.73
2022-08-14T15:50:19.319Z,1.40
2022-08-14T15:52:47.078Z,1.60
2022-08-14T15:55:15.852Z,1.70
2022-08-14T15:58:02.163Z,1.50
2022-08-14T16:00:53.416Z,1.85
2022-08-14T16:03:27.612Z,2.03
2022-08-14T16:06:10.887Z,1.60
2022-08-14T16:08:44.471Z,1.67
2022-08-14T16:11:12.277Z,1.90
2022-08-14T16:13:45.612Z,1.55
2022-08-14T16:16:49.033Z,1.80
2022-08-14T16:19:17.482Z,1.83
2022-08-14T16:22:01.683Z,1.95
2022-08-14T16:24:57.833Z,1.90
2022-08-14T16:27:38.861Z,1.63
2022-08-14T16:30:20.521Z,1.50
2022-08-14T16:32:57.054Z,2.00
2022-08-14T16:35:43.433Z,2.05
2022-08-14T16:38:45.879Z,1.30
2022-08-14T16:41:17.393Z,1.73
2022-08-14T16:43:45.673Z,1.60
2022-08-14T16:46:15.471Z,1.70
2022-08-14T16:48:55.278Z,1.60
2022-08-14T16:51:26.065Z,1.95
2022-08-14T16:53:56.330Z,2.13
2022-08-14T16:56:28.158Z,2.30
2022-08-14T16:59:20.328Z,2.22
2022-08-14T17:01:59.374Z,1.88
2022-08-14T17:04:31.705Z,1.73
2022-08-14T17:07:01.281Z,1.80
2022-08-14T17:09:36.947Z,1.40
2022-08-14T17:12:33.848Z,1.90
2022-08-14T17:15:03.787Z,1.83
2022-08-14T17:17:40.052Z,1.40
2022-08-14T17:20:53.946Z,2.10
2022-08-14T17:23:11.440Z,1.73
2022-08-14T17:25:39.082Z,1.48
2022-08-14T17:28:51.887Z,1.65
2022-08-14T17:31:02.976Z,1.73
2022-08-14T17:33:40.951Z,1.83
2022-08-14T17:36:20.983Z,1.73
2022-08-14T17:39:06.601Z,1.90
2022-08-14T17:41:43.722Z,1.90
2022-08-14T17:44:13.430Z,1.80
2022-08-14T17:47:01.963Z,1.75
2022-08-14T17:49:33.475Z,1.63
2022-08-14T17:52:17.515Z,1.80
2022-08-14T17:54:52.584Z,2.38
2022-08-14T17:57:28.387Z,2.20
2022-08-14T17:59:56.985Z,2.85
2022-08-14T18:02:31.418Z,3.05
2022-08-14T18:05:00.287Z,2.60
2022-08-14T18:07:59.832Z,2.45
2022-08-14T18:10:55.094Z,2.30
2022-08-14T18:13:11.196Z,2.65
2022-08-14T18:15:41.247Z,3.05
2022-08-14T18:18:11.816Z,2.63
2022-08-14T18:21:40.674Z,2.90
2022-08-14T18:23:28.325Z,2.60
2022-08-14T18:25:57.160Z,7.10
2022-08-14T18:28:47.915Z,7.10
2022-08-14T18:31:22.733Z,3.90
2022-08-14T18:33:54.313Z,3.20
2022-08-14T18:36:47.556Z,2.90
2022-08-14T18:39:23.964Z,2.20
2022-08-14T18:41:52.573Z,1.98
2022-08-14T18:44:50.379Z,2.10
2022-08-14T18:47:17.551Z,2.63
2022-08-14T18:50:00.714Z,2.30
2022-08-14T18:52:39.871Z,2.10
2022-08-14T18:55:20.785Z,2.10
2022-08-14T18:58:26.631Z,2.60
2022-08-14T19:00:58.819Z,2.22
2022-08-14T19:03:36.430Z,2.30
2022-08-14T19:06:10.933Z,2.20
2022-08-14T19:08:49.063Z,2.03
2022-08-14T19:11:32.401Z,2.33
2022-08-14T19:14:05.086Z,2.28
2022-08-14T19:16:43.156Z,2.22
2022-08-14T19:19:15.554Z,2.40
2022-08-14T19:21:55.609Z,2.17
2022-08-14T19:24:43.954Z,2.50
2022-08-14T19:27:19.689Z,2.75
2022-08-14T19:29:51.708Z,2.10
2022-08-14T19:32:40.392Z,2.20
2022-08-14T19:35:19.583Z,2.42
2022-08-14T19:37:52.870Z,2.38
2022-08-14T19:40:31.836Z,2.55
2022-08-14T19:43:06.480Z,2.58
2022-08-14T19:45:38.647Z,2.60
2022-08-14T19:48:15.739Z,2.53
2022-08-14T19:50:46.272Z,2.28
2022-08-14T19:53:17.393Z,2.25
2022-08-14T19:55:59.484Z,2.40
2022-08-14T19:58:55.102Z,2.35
2022-08-14T20:01:37.550Z,2.42
2022-08-14T20:04:08.305Z,3.08
2022-08-14T20:06:55.386Z,2.67
2022-08-14T20:11:04.209Z,2.78
2022-08-14T20:12:29.225Z,2.58
2022-08-14T20:15:10.267Z,2.30
2022-08-14T20:17:40.146Z,2.47
2022-08-14T20:20:30.565Z,2.28
2022-08-14T20:23:11.397Z,3.03
2022-08-14T20:25:45.454Z,2.75
2022-08-14T20:28:31.875Z,2.45
2022-08-14T20:31:14.442Z,2.47
2022-08-14T20:36:30.527Z,2.50
2022-08-14T20:38:58.483Z,2.75
2022-08-14T20:41:25.746Z,2.67
2022-08-14T20:44:15.796Z,2.92
2022-08-14T20:46:47.947Z,2.97
2022-08-14T20:49:18.721Z,3.08
2022-08-14T20:51:58.680Z,2.72
2022-08-14T20:54:33.815Z,2.55
2022-08-14T20:57:07.921Z,2.88
2022-08-14T20:59:44.145Z,2.70
2022-08-14T21:02:28.603Z,2.65
2022-08-14T21:05:03.611Z,2.67
2022-08-14T21:07:36.512Z,2.60
2022-08-14T21:10:33.073Z,2.60
2022-08-14T21:13:26.125Z,2.80
2022-08-14T21:15:57.672Z,2.90
2022-08-14T21:18:35.271Z,2.80
2022-08-14T21:21:19.398Z,2.95
2022-08-14T21:23:55.426Z,2.67
2022-08-14T21:26:49.466Z,2.72
2022-08-14T21:29:15.318Z,2.92
2022-08-14T21:31:55.670Z,3.00
2022-08-14T21:34:31.278Z,3.45
2022-08-14T21:37:06.407Z,3.00
2022-08-14T21:39:36.672Z,3.03
2022-08-14T21:42:05.867Z,2.70
2022-08-14T21:44:34.399Z,2.97
2022-08-14T21:47:12.788Z,2.90
2022-08-14T21:49:41.157Z,2.70
2022-08-14T21:52:49.485Z,3.00
2022-08-14T21:55:09.395Z,2.58
2022-08-14T21:57:55.851Z,2.73
2022-08-14T22:00:36.632Z,2.80
2022-08-14T22:03:09.956Z,2.58
2022-08-14T22:05:41.792Z,2.85
2022-08-14T22:08:12.470Z,3.05
2022-08-14T22:10:44.813Z,2.50
2022-08-14T22:13:16.877Z,2.80
2022-08-14T22:15:49.441Z,2.67
2022-08-14T22:18:20.592Z,2.72
2022-08-14T22:20:53.362Z,2.90
2022-08-14T22:23:22.949Z,3.20
2022-08-14T22:25:50.431Z,2.80
2022-08-14T22:28:22.609Z,3.30
2022-08-14T22:30:54.886Z,3.38
2022-08-14T22:33:31.191Z,3.42
2022-08-14T22:36:00.577Z,3.03
2022-08-14T22:38:36.243Z,2.88
2022-08-14T22:41:27.451Z,3.10
2022-08-14T22:43:55.510Z,3.17
2022-08-14T22:46:23.683Z,2.92
2022-08-14T22:48:51.683Z,2.83
2022-08-14T22:51:21.989Z,2.97
2022-08-14T22:53:52.260Z,2.75
2022-08-14T22:56:29.416Z,2.85
2022-08-14T22:59:02.536Z,2.90
2022-08-14T23:01:55.491Z,2.95
2022-08-14T23:04:34.333Z,3.08
2022-08-14T23:07:07.413Z,3.15
2022-08-14T23:09:56.866Z,3.05
2022-08-14T23:12:29.882Z,3.20
2022-08-14T23:14:59.283Z,2.75
2022-08-14T23:17:39.279Z,3.42
2022-08-14T23:20:18.774Z,3.30
2022-08-14T23:22:52.318Z,3.13
2022-08-14T23:25:56.793Z,3.00
2022-08-14T23:28:33.977Z,2.70
2022-08-14T23:31:08.301Z,3.08
2022-08-14T23:33:45.636Z,3.67
2022-08-14T23:36:32.681Z,3.13
2022-08-14T23:39:10.122Z,3.55
2022-08-14T23:41:45.943Z,3.30
2022-08-14T23:44:21.598Z,3.15
2022-08-14T23:46:52.561Z,3.30
2022-08-14T23:49:25.496Z,3.30
2022-08-14T23:52:51.541Z,3.22
2022-08-14T23:54:48.975Z,3.42
2022-08-14T23:57:19.154Z,3.25
2022-08-14T23:59:54.830Z,3.28
